Time;durP1;ratioP1;P1;durP2;ratioP2;P2;SDS_P1;SDS_P2;PMS_P1;PMS_P2;Temp;Humidity;BMP_temperature;BMP_pressure;BME280_temperature;BME280_humidity;BME280_pressure;Samples;Min_cycle;Max_cycle;Signal;HPM_P1;HPM_P2
2023/11/03 00:12:42;;;;;;;;;;;;;;;;;;4995548;28;19934;-83
2023/11/03 00:15:11;;;;;;;;;;;;;;;;;;4967942;28;19918;-83
2023/11/03 00:17:42;;;;;;;;;;;;;;;;;;4982215;28;19969;-84
2023/11/03 00:20:34;;;;;;;;;;;;;;;;;;4998017;28;19922;-84
2023/11/03 00:23:29;;;;;;;;;;;;;;;;;;4998596;28;19914;-85
2023/11/03 00:26:01;;;;;;;;;;;;;;;;;;4982090;28;19914;-83
2023/11/03 00:28:28;;;;;;;;;;;;;;;;;;4959393;28;19915;-84
2023/11/03 00:31:00;;;;;;;;;;;;;;;;;;4978245;29;19915;-84
2023/11/03 00:33:32;;;;;;;;;;;;;;;;;;4978186;28;19899;-84
2023/11/03 00:36:02;;;;;;;;;;;;;;;;;;4946705;28;19903;-84
2023/11/03 00:41:22;;;;;;;;;;;;;;;;;;5028565;23;19910;-83
2023/11/03 00:44:45;;;;;;;;;;;;;;;;;;4997744;28;19941;-84
2023/11/03 00:47:47;;;;;;;;;;;;;;;;;;4996607;28;19974;-83
2023/11/03 00:53:40;;;;;;;;;;;;;;;;;;5741072;23;19926;-83
2023/11/03 01:01:55;;;;;;;;;;;;;;;;;;5820877;23;19926;-83
2023/11/03 01:04:31;;;;;;;;;;;;;;;;;;4980455;28;19906;-83
2023/11/03 01:07:05;;;;;;;;;;;;;;;;;;4961692;28;19902;-83
2023/11/03 01:09:41;;;;;;;;;;;;;;;;;;4978684;28;19957;-82
2023/11/03 01:12:12;;;;;;;;;;;;;;;;;;4993901;28;19938;-83
2023/11/03 01:14:51;;;;;;;;;;;;;;;;;;4981434;28;20542;-83
2023/11/03 01:17:20;;;;;;;;;;;;;;;;;;4979141;28;19925;-84
2023/11/03 01:20:19;;;;;;;;;;;;;;;;;;5007653;28;20521;-83
2023/11/03 01:23:00;;;;;;;;;;;;;;;;;;4938609;29;20069;-83
2023/11/03 01:26:11;;;;;;;;;;;;;;;;;;4954679;29;19950;-83
2023/11/03 01:28:45;;;;;;;;;;;;;;;;;;4937995;29;19915;-83
2023/11/03 01:31:43;;;;;;;;;;;;;;;;;;4938842;29;19938;-83
2023/11/03 01:34:24;;;;;;;;;;;;;;;;;;4933744;29;20358;-83
2023/11/03 01:37:13;;;;;;;;;;;;;;;;;;4936974;29;19923;-83
2023/11/03 01:39:45;;;;;;;;;;;;;;;;;;4933520;29;19925;-83
2023/11/03 01:42:25;;;;;;;;;;;;;;;;;;4949196;29;19969;-83
2023/11/03 01:45:36;;;;;;;;;;;;;;;;;;4933338;29;19986;-83
2023/11/03 01:48:08;;;;;;;;;;;;;;;;;;4921033;29;19915;-83
2023/11/03 01:50:40;;;;;;;;;;;;;;;;;;4920705;29;19915;-83
2023/11/03 01:53:47;;;;;;;;;;;;;;;;;;4962468;28;19942;-84
2023/11/03 01:57:09;;;;;;;;;;;;;;;;;;4979262;28;19920;-85
2023/11/03 02:00:07;;;;;;;;;;;;;;;;;;4975118;28;19938;-83
2023/11/03 02:05:43;;;;;;;;;;;;;;;;;;4957161;28;19918;-84
2023/11/03 02:08:59;;;;;;;;;;;;;;;;;;5009292;28;19918;-84
2023/11/03 02:12:36;;;;;;;;;;;;;;;;;;5010113;28;19937;-83
2023/11/03 02:15:51;;;;;;;;;;;;;;;;;;5009918;28;19990;-83
2023/11/03 02:18:41;;;;;;;;;;;;;;;;;;5006845;28;19952;-83
2023/11/03 02:21:22;;;;;;;;;;;;;;;;;;4976039;28;19950;-83
2023/11/03 02:24:28;;;;;;;;;;;;;;;;;;4990681;28;19914;-83
2023/11/03 02:27:54;;;;;;;;;;;;;;;;;;4951069;29;19950;-85
2023/11/03 02:30:28;;;;;;;;;;;;;;;;;;4936819;29;20448;-84
2023/11/03 02:33:22;;;;;;;;;;;;;;;;;;4934720;29;19919;-83
2023/11/03 02:35:55;;;;;;;;;;;;;;;;;;4925159;29;20440;-83
2023/11/03 02:38:22;;;;;;;;;;;;;;;;;;4914927;29;19954;-83
2023/11/03 02:40:54;;;;;;;;;;;;;;;;;;4919420;29;19918;-81
2023/11/03 02:43:23;;;;;;;;;;;;;;;;;;4907948;29;19950;-83
2023/11/03 02:45:53;;;;;;;;;;;;;;;;;;4921689;29;19923;-83
2023/11/03 02:48:19;;;;;;;;;;;;;;;;;;4907466;29;19925;-83
2023/11/03 02:50:45;;;;;;;;;;;;;;;;;;4914335;29;19911;-83
2023/11/03 02:53:13;;;;;;;;;;;;;;;;;;4918152;29;19939;-83
2023/11/03 02:55:39;;;;;;;;;;;;;;;;;;4914149;29;19915;-83
2023/11/03 02:58:12;;;;;;;;;;;;;;;;;;4931551;29;19909;-83
2023/11/03 03:00:43;;;;;;;;;;;;;;;;;;4956944;29;19914;-82
2023/11/03 03:03:15;;;;;;;;;;;;;;;;;;4949052;28;19994;-82
2023/11/03 03:12:03;;;;;;;;;;;;;;;;;;5006731;28;19925;-83
2023/11/03 03:15:30;;;;;;;;;;;;;;;;;;4980705;28;20338;-83
2023/11/03 03:22:30;;;;;;;;;;;;;;;;;;4984889;28;19914;-82
2023/11/03 03:25:00;;;;;;;;;;;;;;;;;;4993970;28;20152;-84
2023/11/03 03:27:40;;;;;;;;;;;;;;;;;;4974331;28;19918;-82
2023/11/03 03:33:47;;;;;;;;;;;;;;;;;;4979119;28;19922;-84
2023/11/03 03:36:24;;;;;;;;;;;;;;;;;;4943655;29;19921;-83
2023/11/03 03:39:26;;;;;;;;;;;;;;;;;;5196082;23;20191;-82
2023/11/03 03:42:07;;;;;;;;;;;;;;;;;;4990414;28;19950;-83
2023/11/03 03:44:36;;;;;;;;;;;;;;;;;;4996568;28;19938;-83
2023/11/03 03:47:24;;;;;;;;;;;;;;;;;;4959231;29;19911;-84
2023/11/03 03:49:58;;;;;;;;;;;;;;;;;;4972744;28;20329;-83
2023/11/03 03:52:44;;;;;;;;;;;;;;;;;;4961990;29;19938;-83
2023/11/03 03:55:15;;;;;;;;;;;;;;;;;;4957435;29;19922;-83
2023/11/03 03:58:21;;;;;;;;;;;;;;;;;;4959097;29;19926;-83
2023/11/03 04:00:52;;;;;;;;;;;;;;;;;;4974432;28;19899;-83
2023/11/03 04:03:53;;;;;;;;;;;;;;;;;;4961166;28;19941;-83
2023/11/03 04:11:57;;;;;;;;;;;;;;;;;;5641884;23;19926;-84
2023/11/03 04:14:44;;;;;;;;;;;;;;;;;;4999863;28;19945;-84
2023/11/03 04:17:22;;;;;;;;;;;;;;;;;;4969491;28;20005;-83
2023/11/03 04:19:56;;;;;;;;;;;;;;;;;;4998896;28;19922;-82
2023/11/03 04:22:46;;;;;;;;;;;;;;;;;;5013905;28;19918;-83
2023/11/03 04:25:32;;;;;;;;;;;;;;;;;;4979931;28;19919;-83
2023/11/03 04:28:11;;;;;;;;;;;;;;;;;;4980105;28;19925;-83
2023/11/03 04:33:45;;;;;;;;;;;;;;;;;;5719051;23;19910;-83
2023/11/03 04:36:15;;;;;;;;;;;;;;;;;;4963602;28;19929;-83
2023/11/03 04:38:49;;;;;;;;;;;;;;;;;;4963086;28;19922;-86
2023/11/03 04:41:19;;;;;;;;;;;;;;;;;;4963472;29;19915;-85
2023/11/03 04:43:48;;;;;;;;;;;;;;;;;;4962527;28;19973;-84
2023/11/03 04:46:39;;;;;;;;;;;;;;;;;;4949293;28;19926;-84
2023/11/03 04:49:38;;;;;;;;;;;;;;;;;;5104593;23;19910;-84
2023/11/03 04:55:33;;;;;;;;;;;;;;;;;;4978350;28;19918;-84
2023/11/03 04:58:00;;;;;;;;;;;;;;;;;;4961589;28;19910;-82
2023/11/03 05:00:27;;;;;;;;;;;;;;;;;;4977304;28;19921;-83
2023/11/03 05:03:03;;;;;;;;;;;;;;;;;;4945320;29;19995;-83
2023/11/03 05:05:52;;;;;;;;;;;;;;;;;;4975253;28;19910;-84
2023/11/03 05:18:10;;;;;;;;;;;;;;;;;;5011266;28;19994;-83
2023/11/03 05:24:07;;;;;;;;;;;;;;;;;;5323568;23;19948;-83
2023/11/03 05:26:41;;;;;;;;;;;;;;;;;;4972684;28;19922;-83
2023/11/03 05:29:22;;;;;;;;;;;;;;;;;;4937963;29;19915;-83
2023/11/03 05:31:55;;;;;;;;;;;;;;;;;;4952336;29;19919;-83
2023/11/03 05:34:34;;;;;;;;;;;;;;;;;;4952677;29;19921;-83
2023/11/03 05:37:14;;;;;;;;;;;;;;;;;;;;;
2023/11/03 05:40:15;;;;;;;;;;;;;;;;;;4943701;29;19921;-85
2023/11/03 05:42:49;;;;;;;;;;;;;;;;;;4973572;28;20317;-83
2023/11/03 05:45:36;;;;;;;;;;;;;;;;;;4952248;29;20286;-83
2023/11/03 05:48:05;;;;;;;;;;;;;;;;;;4954933;29;19919;-83
2023/11/03 05:50:44;;;;;;;;;;;;;;;;;;4955500;29;19917;-84
2023/11/03 05:53:15;;;;;;;;;;;;;;;;;;4976405;28;19907;-82
2023/11/03 05:55:45;;;;;;;;;;;;;;;;;;4957752;28;19907;-83
2023/11/03 05:58:13;;;;;;;;;;;;;;;;;;4966681;28;19978;-82
2023/11/03 06:17:30;;;;;;;;;;;;;;;;;;5403547;23;19930;-85
2023/11/03 06:20:03;;;;;;;;;;;;;;;;;;4962547;28;19918;-83
2023/11/03 06:22:32;;;;;;;;;;;;;;;;;;4965358;28;19906;-85
2023/11/03 06:52:18;;;;;;;;;;;;;;;;;;5500187;23;19926;-82
2023/11/03 06:54:50;;;;;;;;;;;;;;;;;;4978581;28;19929;-83
2023/11/03 06:57:25;;;;;;;;;;;;;;;;;;4976492;28;19922;-83
2023/11/03 06:59:53;;;;;;;;;;;;;;;;;;4978205;28;19918;-83
2023/11/03 07:03:00;;;;;;;;;;;;;;;;;;5007162;28;19918;-82
2023/11/03 07:06:14;;;;;;;;;;;;;;;;;;4965850;28;19906;-85
2023/11/03 09:18:29;;;;;;;;;;;;;;;;;;4989725;23;19949;-81
2023/11/03 09:20:58;;;;;;;;;;;;;;;;;;4958764;28;19929;-79
2023/11/03 09:23:30;;;;;;;;;;;;;;;;;;4959098;28;20355;-80
2023/11/03 09:25:56;;;;;;;;;;;;;;;;;;4973882;28;19922;-80
2023/11/03 09:28:27;;;;;;;;;;;;;;;;;;4974370;28;20288;-81
2023/11/03 09:30:57;;;;;;;;;;;;;;;;;;4974691;28;19918;-80
2023/11/03 09:33:23;;;;;;;;;;;;;;;;;;4974218;28;19961;-81
2023/11/03 09:35:51;;;;;;;;;;;;;;;;;;4969415;28;19910;-80
2023/11/03 09:38:20;;;;;;;;;;;;;;;;;;4954677;28;19925;-81
2023/11/03 09:40:46;;;;;;;;;;;;;;;;;;4939158;29;20001;-79
2023/11/03 09:43:17;;;;;;;;;;;;;;;;;;4939957;29;19915;-81
2023/11/03 09:45:42;;;;;;;;;;;;;;;;;;4948827;28;19940;-80
2023/11/03 09:48:12;;;;;;;;;;;;;;;;;;4988774;28;19914;-80
2023/11/03 09:50:39;;;;;;;;;;;;;;;;;;4989495;28;19914;-80
2023/11/03 09:53:04;;;;;;;;;;;;;;;;;;4958478;28;19937;-81
2023/11/03 09:55:33;;;;;;;;;;;;;;;;;;4976144;28;19926;-82
2023/11/03 09:58:01;;;;;;;;;;;;;;;;;;4954816;28;19914;-82
2023/11/03 10:00:27;;;;;;;;;;;;;;;;;;4942894;28;20312;-80
2023/11/03 10:02:52;;;;;;;;;;;;;;;;;;4942574;28;19925;-81
2023/11/03 10:05:21;;;;;;;;;;;;;;;;;;4958549;28;19981;-81
2023/11/03 10:07:51;;;;;;;;;;;;;;;;;;4975367;28;20001;-82
2023/11/03 10:10:18;;;;;;;;;;;;;;;;;;4973816;28;19933;-81
2023/11/03 10:12:43;;;;;;;;;;;;;;;;;;4973419;28;20021;-80
2023/11/03 10:15:13;;;;;;;;;;;;;;;;;;4974843;28;20326;-80
2023/11/03 10:17:39;;;;;;;;;;;;;;;;;;4957267;28;19925;-81
2023/11/03 10:20:06;;;;;;;;;;;;;;;;;;4974740;28;19981;-81
2023/11/03 10:22:40;;;;;;;;;;;;;;;;;;4979649;28;19925;-82
2023/11/03 10:25:06;;;;;;;;;;;;;;;;;;4961451;28;19919;-81
2023/11/03 10:27:33;;;;;;;;;;;;;;;;;;4961490;28;19981;-81
2023/11/03 10:30:05;;;;;;;;;;;;;;;;;;4958610;29;19914;-81
2023/11/03 10:32:32;;;;;;;;;;;;;;;;;;4955401;28;20369;-81
2023/11/03 10:34:58;;;;;;;;;;;;;;;;;;4954299;28;19921;-82
2023/11/03 10:37:25;;;;;;;;;;;;;;;;;;4949892;29;20032;-81
2023/11/03 10:39:51;;;;;;;;;;;;;;;;;;4953715;29;19960;-81
2023/11/03 10:42:18;;;;;;;;;;;;;;;;;;4965491;28;20373;-81
2023/11/03 10:44:46;;;;;;;;;;;;;;;;;;4958099;28;19914;-81
2023/11/03 10:47:12;;;;;;;;;;;;;;;;;;4959227;28;20025;-81
2023/11/03 10:49:40;;;;;;;;;;;;;;;;;;4974277;28;19969;-81
2023/11/03 10:52:07;;;;;;;;;;;;;;;;;;4961826;28;20376;-80
2023/11/03 10:54:34;;;;;;;;;;;;;;;;;;4977395;28;19914;-81
2023/11/03 10:57:05;;;;;;;;;;;;;;;;;;4977378;28;19973;-81
2023/11/03 10:59:31;;;;;;;;;;;;;;;;;;4976912;28;20381;-81
2023/11/03 11:02:10;;;;;;;;;;;;;;;;;;4963399;28;19920;-81
2023/11/03 11:04:40;;;;;;;;;;;;;;;;;;4978300;28;20385;-81
2023/11/03 11:07:06;;;;;;;;;;;;;;;;;;4977904;28;20000;-81
2023/11/03 11:09:33;;;;;;;;;;;;;;;;;;4979182;28;19914;-81
2023/11/03 11:11:59;;;;;;;;;;;;;;;;;;4978716;28;19968;-81
2023/11/03 11:14:33;;;;;;;;;;;;;;;;;;4977358;28;19914;-81
2023/11/03 11:17:01;;;;;;;;;;;;;;;;;;4940807;29;19938;-81
2023/11/03 11:19:26;;;;;;;;;;;;;;;;;;4973665;28;19934;-81
2023/11/03 11:21:55;;;;;;;;;;;;;;;;;;4977240;28;19997;-81
2023/11/03 11:24:26;;;;;;;;;;;;;;;;;;4961390;28;19973;-80
2023/11/03 11:26:56;;;;;;;;;;;;;;;;;;4975066;28;19922;-81
2023/11/03 11:29:23;;;;;;;;;;;;;;;;;;4979486;28;19937;-81
2023/11/03 11:31:49;;;;;;;;;;;;;;;;;;4961245;28;20038;-80
2023/11/03 11:34:17;;;;;;;;;;;;;;;;;;4957709;28;19997;-81
2023/11/03 11:36:43;;;;;;;;;;;;;;;;;;4946657;29;20294;-80
2023/11/03 11:39:13;;;;;;;;;;;;;;;;;;4961918;28;19929;-81
2023/11/03 11:41:41;;;;;;;;;;;;;;;;;;4974887;28;19921;-81
2023/11/03 11:44:11;;;;;;;;;;;;;;;;;;4983938;28;19921;-81
2023/11/03 11:46:39;;;;;;;;;;;;;;;;;;4977740;28;20206;-80
2023/11/03 11:49:06;;;;;;;;;;;;;;;;;;4964316;28;19926;-80
2023/11/03 11:51:39;;;;;;;;;;;;;;;;;;4995378;28;19902;-80
2023/11/03 11:54:10;;;;;;;;;;;;;;;;;;5002349;28;19918;-80
2023/11/03 11:56:37;;;;;;;;;;;;;;;;;;4981933;28;19902;-80
2023/11/03 11:59:09;;;;;;;;;;;;;;;;;;4992039;28;19948;-80
2023/11/03 12:01:34;;;;;;;;;;;;;;;;;;4979782;28;19921;-80
2023/11/03 12:04:02;;;;;;;;;;;;;;;;;;4979671;28;19918;-80
2023/11/03 12:06:30;;;;;;;;;;;;;;;;;;4951357;28;19945;-79
2023/11/03 12:08:58;;;;;;;;;;;;;;;;;;4958362;28;19911;-81
2023/11/03 12:11:26;;;;;;;;;;;;;;;;;;4946110;28;20349;-81
2023/11/03 12:13:53;;;;;;;;;;;;;;;;;;4976941;28;19910;-81
2023/11/03 12:16:20;;;;;;;;;;;;;;;;;;4975475;28;19914;-82
2023/11/03 12:18:49;;;;;;;;;;;;;;;;;;4959281;28;19919;-82
2023/11/03 12:21:16;;;;;;;;;;;;;;;;;;4943274;28;19929;-82
2023/11/03 12:23:46;;;;;;;;;;;;;;;;;;4971169;28;19914;-80
2023/11/03 12:26:13;;;;;;;;;;;;;;;;;;4935354;28;19914;-81
2023/11/03 12:28:44;;;;;;;;;;;;;;;;;;4976106;28;19993;-79
2023/11/03 12:31:10;;;;;;;;;;;;;;;;;;4955694;28;20297;-80
2023/11/03 12:34:03;;;;;;;;;;;;;;;;;;4977778;28;19911;-81
2023/11/03 12:36:30;;;;;;;;;;;;;;;;;;4960797;28;20013;-80
2023/11/03 12:39:02;;;;;;;;;;;;;;;;;;4976399;28;19925;-80
2023/11/03 12:41:28;;;;;;;;;;;;;;;;;;4961740;28;19914;-81
2023/11/03 12:43:54;;;;;;;;;;;;;;;;;;4951637;28;19918;-81
2023/11/03 12:46:20;;;;;;;;;;;;;;;;;;4968846;28;19925;-80
2023/11/03 12:48:48;;;;;;;;;;;;;;;;;;4977313;28;19914;-81
2023/11/03 12:51:17;;;;;;;;;;;;;;;;;;4950689;28;19919;-81
2023/11/03 12:53:44;;;;;;;;;;;;;;;;;;4952467;28;19926;-79
2023/11/03 12:56:11;;;;;;;;;;;;;;;;;;4947410;28;19941;-81
2023/11/03 12:58:39;;;;;;;;;;;;;;;;;;4981024;28;20219;-81
2023/11/03 13:01:06;;;;;;;;;;;;;;;;;;4966227;28;20254;-81
2023/11/03 13:03:32;;;;;;;;;;;;;;;;;;4985403;28;19921;-81
2023/11/03 13:05:59;;;;;;;;;;;;;;;;;;4982709;28;19957;-81
2023/11/03 13:08:37;;;;;;;;;;;;;;;;;;4980631;28;19914;-82
2023/11/03 13:11:07;;;;;;;;;;;;;;;;;;4942382;28;19979;-81
2023/11/03 13:13:39;;;;;;;;;;;;;;;;;;4956628;28;19949;-81
2023/11/03 13:16:06;;;;;;;;;;;;;;;;;;4977269;28;19957;-81
2023/11/03 13:18:32;;;;;;;;;;;;;;;;;;4975178;28;19922;-81
2023/11/03 13:21:10;;;;;;;;;;;;;;;;;;4959952;29;20004;-81
2023/11/03 13:23:37;;;;;;;;;;;;;;;;;;4945760;28;19914;-81
2023/11/03 13:26:10;;;;;;;;;;;;;;;;;;4978537;28;19922;-80
2023/11/03 13:28:44;;;;;;;;;;;;;;;;;;4954945;28;19915;-82
2023/11/03 13:31:17;;;;;;;;;;;;;;;;;;4978682;28;19914;-81
2023/11/03 13:33:44;;;;;;;;;;;;;;;;;;4991423;28;19918;-81
2023/11/03 13:36:31;;;;;;;;;;;;;;;;;;4989622;28;19918;-80
2023/11/03 13:39:21;;;;;;;;;;;;;;;;;;4960587;29;19918;-80
2023/11/03 13:41:49;;;;;;;;;;;;;;;;;;4944654;29;19914;-82
2023/11/03 13:44:16;;;;;;;;;;;;;;;;;;4944970;29;19937;-81
2023/11/03 13:46:46;;;;;;;;;;;;;;;;;;4944778;29;19969;-82
2023/11/03 13:49:14;;;;;;;;;;;;;;;;;;4964048;28;19969;-81
2023/11/03 13:51:47;;;;;;;;;;;;;;;;;;4960265;28;19914;-81
2023/11/03 13:54:22;;;;;;;;;;;;;;;;;;4962564;28;19924;-82
2023/11/03 13:56:54;;;;;;;;;;;;;;;;;;4967596;28;20001;-82
2023/11/03 13:59:24;;;;;;;;;;;;;;;;;;4980386;28;20025;-82
2023/11/03 14:01:49;;;;;;;;;;;;;;;;;;4972847;28;19952;-81
2023/11/03 14:04:19;;;;;;;;;;;;;;;;;;4956071;28;19972;-81
2023/11/03 14:06:47;;;;;;;;;;;;;;;;;;4963330;28;19918;-80
2023/11/03 14:09:16;;;;;;;;;;;;;;;;;;4976093;28;19953;-79
2023/11/03 14:11:48;;;;;;;;;;;;;;;;;;4974842;28;20413;-81
2023/11/03 14:14:15;;;;;;;;;;;;;;;;;;4970014;28;19937;-80
2023/11/03 14:16:47;;;;;;;;;;;;;;;;;;4974360;28;19902;-81
2023/11/03 14:19:23;;;;;;;;;;;;;;;;;;4968847;28;19972;-79
2023/11/03 14:21:51;;;;;;;;;;;;;;;;;;4972678;28;19925;-81
2023/11/03 14:24:30;;;;;;;;;;;;;;;;;;4998884;28;19942;-81
2023/11/03 14:27:19;;;;;;;;;;;;;;;;;;4981031;28;19911;-81
2023/11/03 14:29:47;;;;;;;;;;;;;;;;;;4981210;28;19922;-80
2023/11/03 14:32:13;;;;;;;;;;;;;;;;;;4985327;28;19910;-81
2023/11/03 14:34:45;;;;;;;;;;;;;;;;;;4997480;28;19906;-81
2023/11/03 14:37:22;;;;;;;;;;;;;;;;;;4984822;28;19906;-81
2023/11/03 14:39:50;;;;;;;;;;;;;;;;;;4968988;28;19986;-80
2023/11/03 14:42:22;;;;;;;;;;;;;;;;;;4987167;28;19971;-81
2023/11/03 14:45:13;;;;;;;;;;;;;;;;;;4987775;28;19950;-81
2023/11/03 14:47:44;;;;;;;;;;;;;;;;;;4999642;28;19906;-81
2023/11/03 14:50:11;;;;;;;;;;;;;;;;;;5000909;28;19906;-81
2023/11/03 14:53:04;;;;;;;;;;;;;;;;;;4991633;28;19952;-81
2023/11/03 14:55:37;;;;;;;;;;;;;;;;;;5000964;28;19911;-81
2023/11/03 14:58:08;;;;;;;;;;;;;;;;;;4964262;28;19914;-80
2023/11/03 15:00:35;;;;;;;;;;;;;;;;;;4983710;28;19906;-82
2023/11/03 15:03:01;;;;;;;;;;;;;;;;;;4999437;28;19929;-80
2023/11/03 15:05:36;;;;;;;;;;;;;;;;;;4997846;28;19938;-81
2023/11/03 15:08:08;;;;;;;;;;;;;;;;;;4997470;28;19981;-80
2023/11/03 15:10:34;;;;;;;;;;;;;;;;;;4995161;28;19914;-81
2023/11/03 15:13:00;;;;;;;;;;;;;;;;;;4998298;28;19914;-80
2023/11/03 15:15:48;;;;;;;;;;;;;;;;;;4999904;28;19925;-80
2023/11/03 15:18:20;;;;;;;;;;;;;;;;;;4980936;28;19922;-80
2023/11/03 15:20:49;;;;;;;;;;;;;;;;;;4980037;28;19922;-80
2023/11/03 15:23:15;;;;;;;;;;;;;;;;;;4994093;28;20002;-80
2023/11/03 15:25:42;;;;;;;;;;;;;;;;;;4969383;28;20365;-81
2023/11/03 15:28:07;;;;;;;;;;;;;;;;;;4984269;28;19914;-81
2023/11/03 15:30:35;;;;;;;;;;;;;;;;;;4956242;28;19914;-81
2023/11/03 15:33:06;;;;;;;;;;;;;;;;;;4973813;28;19910;-81
2023/11/03 15:35:31;;;;;;;;;;;;;;;;;;4990245;28;20355;-81
2023/11/03 15:37:57;;;;;;;;;;;;;;;;;;4952858;28;19918;-81
2023/11/03 15:40:25;;;;;;;;;;;;;;;;;;4955878;29;19914;-81
2023/11/03 15:42:51;;;;;;;;;;;;;;;;;;4972011;29;19921;-80
2023/11/03 15:45:22;;;;;;;;;;;;;;;;;;4967728;29;19911;-81
2023/11/03 15:47:50;;;;;;;;;;;;;;;;;;4965223;29;19923;-81
2023/11/03 15:50:19;;;;;;;;;;;;;;;;;;4967061;28;20006;-81
2023/11/03 15:53:15;;;;;;;;;;;;;;;;;;4985070;28;19918;-80
2023/11/03 15:55:55;;;;;;;;;;;;;;;;;;4987702;28;20049;-80
2023/11/03 15:58:44;;;;;;;;;;;;;;;;;;4976098;28;19962;-82
2023/11/03 16:01:13;;;;;;;;;;;;;;;;;;4989265;28;19914;-81
2023/11/03 16:03:41;;;;;;;;;;;;;;;;;;4964343;28;19993;-80
2023/11/03 16:06:12;;;;;;;;;;;;;;;;;;4964285;28;19952;-82
2023/11/03 16:08:38;;;;;;;;;;;;;;;;;;4965611;28;19974;-82
2023/11/03 16:11:17;;;;;;;;;;;;;;;;;;4977590;28;19928;-80
2023/11/03 16:13:46;;;;;;;;;;;;;;;;;;4959330;29;19925;-81
2023/11/03 16:16:14;;;;;;;;;;;;;;;;;;4944437;29;20298;-82
2023/11/03 16:18:47;;;;;;;;;;;;;;;;;;4960636;28;19951;-81
2023/11/03 16:21:22;;;;;;;;;;;;;;;;;;4959928;29;19914;-81
2023/11/03 16:23:48;;;;;;;;;;;;;;;;;;4961749;28;20284;-81
2023/11/03 16:26:16;;;;;;;;;;;;;;;;;;4961903;28;20373;-81
2023/11/03 16:28:48;;;;;;;;;;;;;;;;;;4979225;28;19997;-82
2023/11/03 16:31:14;;;;;;;;;;;;;;;;;;4981594;28;19918;-82
2023/11/03 16:33:41;;;;;;;;;;;;;;;;;;4979179;28;19929;-82
2023/11/03 16:36:14;;;;;;;;;;;;;;;;;;4980114;28;19922;-83
2023/11/03 16:38:41;;;;;;;;;;;;;;;;;;4968154;28;19965;-82
2023/11/03 16:41:07;;;;;;;;;;;;;;;;;;4926681;29;19910;-81
2023/11/03 16:43:34;;;;;;;;;;;;;;;;;;4943111;29;19914;-81
2023/11/03 16:46:00;;;;;;;;;;;;;;;;;;4941957;29;19918;-80
2023/11/03 16:48:39;;;;;;;;;;;;;;;;;;4945438;29;19914;-82
2023/11/03 16:51:07;;;;;;;;;;;;;;;;;;4943601;29;19934;-82
2023/11/03 16:53:37;;;;;;;;;;;;;;;;;;4973860;28;19922;-82
2023/11/03 16:56:07;;;;;;;;;;;;;;;;;;4935550;28;19914;-82
2023/11/03 16:58:35;;;;;;;;;;;;;;;;;;4944021;28;19925;-82
2023/11/03 17:01:05;;;;;;;;;;;;;;;;;;4946982;28;19914;-82
2023/11/03 17:03:33;;;;;;;;;;;;;;;;;;4980001;28;19914;-82
2023/11/03 17:06:00;;;;;;;;;;;;;;;;;;4945480;28;19937;-82
2023/11/03 17:08:28;;;;;;;;;;;;;;;;;;4975922;28;19918;-82
2023/11/03 17:10:55;;;;;;;;;;;;;;;;;;4978766;28;19910;-82
2023/11/03 17:13:21;;;;;;;;;;;;;;;;;;4944471;28;20277;-82
2023/11/03 17:15:47;;;;;;;;;;;;;;;;;;4962526;28;19914;-82
2023/11/03 17:18:16;;;;;;;;;;;;;;;;;;4965637;28;19925;-82
2023/11/03 17:20:44;;;;;;;;;;;;;;;;;;4978670;28;19922;-81
2023/11/03 17:23:14;;;;;;;;;;;;;;;;;;4969812;28;20009;-82
2023/11/03 17:25:39;;;;;;;;;;;;;;;;;;4948144;28;19915;-82
2023/11/03 17:28:11;;;;;;;;;;;;;;;;;;4967137;29;19914;-82
2023/11/03 17:30:46;;;;;;;;;;;;;;;;;;4956720;29;19914;-82
2023/11/03 17:33:32;;;;;;;;;;;;;;;;;;4977742;28;19923;-82
2023/11/03 17:36:02;;;;;;;;;;;;;;;;;;4961652;29;19899;-82
2023/11/03 17:38:33;;;;;;;;;;;;;;;;;;4962251;28;19977;-82
2023/11/03 17:41:03;;;;;;;;;;;;;;;;;;4984705;28;19907;-81
2023/11/03 17:43:30;;;;;;;;;;;;;;;;;;4965221;29;19941;-80
2023/11/03 17:45:58;;;;;;;;;;;;;;;;;;4960696;29;20003;-82
2023/11/03 17:48:28;;;;;;;;;;;;;;;;;;4961766;28;19973;-82
2023/11/03 17:50:53;;;;;;;;;;;;;;;;;;4976527;28;20349;-81
2023/11/03 17:53:24;;;;;;;;;;;;;;;;;;4975891;28;19999;-81
2023/11/03 17:55:51;;;;;;;;;;;;;;;;;;4975387;28;19922;-81
2023/11/03 17:58:23;;;;;;;;;;;;;;;;;;4978224;28;19947;-82
2023/11/03 18:00:50;;;;;;;;;;;;;;;;;;4943770;28;20298;-81
2023/11/03 18:03:23;;;;;;;;;;;;;;;;;;4976740;28;19969;-80
2023/11/03 18:05:48;;;;;;;;;;;;;;;;;;4958965;28;19918;-81
2023/11/03 18:08:17;;;;;;;;;;;;;;;;;;4947763;28;19910;-82
2023/11/03 18:10:46;;;;;;;;;;;;;;;;;;4978868;28;19937;-82
2023/11/03 18:13:11;;;;;;;;;;;;;;;;;;4951013;28;20369;-83
2023/11/03 18:15:39;;;;;;;;;;;;;;;;;;4960916;28;20001;-83
2023/11/03 18:18:07;;;;;;;;;;;;;;;;;;4962198;28;19932;-82
2023/11/03 18:20:38;;;;;;;;;;;;;;;;;;4979427;28;19918;-81
2023/11/03 18:23:04;;;;;;;;;;;;;;;;;;4946803;28;20179;-82
2023/11/03 18:25:30;;;;;;;;;;;;;;;;;;4947124;28;19914;-82
2023/11/03 18:27:56;;;;;;;;;;;;;;;;;;4962727;28;19969;-82
2023/11/03 18:30:27;;;;;;;;;;;;;;;;;;4945238;28;19922;-82
2023/11/03 18:32:53;;;;;;;;;;;;;;;;;;4938276;28;20215;-82
2023/11/03 18:35:19;;;;;;;;;;;;;;;;;;4947023;28;20412;-82
2023/11/03 18:37:46;;;;;;;;;;;;;;;;;;4964750;28;19941;-83
2023/11/03 18:40:16;;;;;;;;;;;;;;;;;;4963787;28;19924;-83
2023/11/03 18:42:50;;;;;;;;;;;;;;;;;;4970069;28;19989;-83
2023/11/03 18:45:21;;;;;;;;;;;;;;;;;;4947935;29;19919;-83
2023/11/03 18:47:47;;;;;;;;;;;;;;;;;;4944791;29;19914;-83
2023/11/03 18:50:16;;;;;;;;;;;;;;;;;;4944497;29;19969;-81
2023/11/03 18:52:47;;;;;;;;;;;;;;;;;;4943997;29;19923;-82
2023/11/03 18:55:16;;;;;;;;;;;;;;;;;;4940341;29;19922;-82
2023/11/03 18:57:43;;;;;;;;;;;;;;;;;;4943101;29;19926;-82
2023/11/03 19:00:11;;;;;;;;;;;;;;;;;;4950279;28;19924;-82
2023/11/03 19:02:37;;;;;;;;;;;;;;;;;;4978140;28;19918;-82
2023/11/03 19:05:03;;;;;;;;;;;;;;;;;;4959722;28;20001;-82
2023/11/03 19:07:30;;;;;;;;;;;;;;;;;;4976684;28;19914;-83
2023/11/03 19:09:57;;;;;;;;;;;;;;;;;;4942973;28;19918;-81
2023/11/03 19:12:23;;;;;;;;;;;;;;;;;;4946306;28;19915;-81
2023/11/03 19:14:49;;;;;;;;;;;;;;;;;;4962467;28;19918;-82
2023/11/03 19:17:17;;;;;;;;;;;;;;;;;;4962177;28;20025;-82
2023/11/03 19:19:45;;;;;;;;;;;;;;;;;;4961601;28;19972;-82
2023/11/03 19:22:14;;;;;;;;;;;;;;;;;;4946977;28;19914;-81
2023/11/03 19:24:43;;;;;;;;;;;;;;;;;;4948367;28;19968;-82
2023/11/03 19:27:11;;;;;;;;;;;;;;;;;;4946751;28;19933;-81
2023/11/03 19:29:38;;;;;;;;;;;;;;;;;;4978442;28;19939;-82
2023/11/03 19:32:07;;;;;;;;;;;;;;;;;;4946876;28;19929;-82
2023/11/03 19:34:42;;;;;;;;;;;;;;;;;;4947196;28;20397;-82
2023/11/03 19:37:13;;;;;;;;;;;;;;;;;;4945639;28;19914;-82
2023/11/03 19:39:41;;;;;;;;;;;;;;;;;;4961495;28;19922;-82
2023/11/03 19:42:07;;;;;;;;;;;;;;;;;;4962556;28;19914;-82
2023/11/03 19:44:35;;;;;;;;;;;;;;;;;;4946680;28;20429;-82
2023/11/03 19:47:04;;;;;;;;;;;;;;;;;;4945918;28;19914;-81
2023/11/03 19:49:33;;;;;;;;;;;;;;;;;;4961799;28;19914;-82
2023/11/03 19:51:59;;;;;;;;;;;;;;;;;;4979790;28;20255;-82
2023/11/03 19:54:25;;;;;;;;;;;;;;;;;;4945108;28;19958;-82
2023/11/03 19:56:51;;;;;;;;;;;;;;;;;;4961286;28;20000;-82
2023/11/03 19:59:17;;;;;;;;;;;;;;;;;;4977379;28;19929;-82
2023/11/03 20:01:45;;;;;;;;;;;;;;;;;;4978830;28;19953;-82
2023/11/03 20:04:14;;;;;;;;;;;;;;;;;;4977444;28;19947;-82
2023/11/03 20:06:39;;;;;;;;;;;;;;;;;;4978787;28;19937;-82
2023/11/03 20:09:09;;;;;;;;;;;;;;;;;;4960722;28;20277;-82
2023/11/03 20:11:35;;;;;;;;;;;;;;;;;;4961541;28;19918;-81
2023/11/03 20:14:03;;;;;;;;;;;;;;;;;;4977030;28;19957;-82
2023/11/03 20:16:30;;;;;;;;;;;;;;;;;;4946019;28;19918;-82
2023/11/03 20:18:56;;;;;;;;;;;;;;;;;;4944904;28;20297;-81
2023/11/03 20:21:22;;;;;;;;;;;;;;;;;;4946507;28;19914;-82
2023/11/03 20:23:48;;;;;;;;;;;;;;;;;;4946815;28;19914;-82
2023/11/03 20:26:21;;;;;;;;;;;;;;;;;;4949819;28;19910;-82
2023/11/03 20:28:49;;;;;;;;;;;;;;;;;;4992220;28;19937;-81
2023/11/03 20:31:16;;;;;;;;;;;;;;;;;;4965079;28;19910;-81
2023/11/03 20:33:54;;;;;;;;;;;;;;;;;;4981766;28;20000;-81
2023/11/03 20:36:20;;;;;;;;;;;;;;;;;;4966162;28;19946;-81
2023/11/03 20:38:51;;;;;;;;;;;;;;;;;;4997795;28;19991;-82
2023/11/03 20:41:17;;;;;;;;;;;;;;;;;;4994820;28;19994;-82
2023/11/03 20:43:42;;;;;;;;;;;;;;;;;;4979880;28;19936;-81
2023/11/03 20:46:08;;;;;;;;;;;;;;;;;;4958547;28;20365;-81
2023/11/03 20:48:37;;;;;;;;;;;;;;;;;;4965268;28;19965;-82
2023/11/03 20:51:08;;;;;;;;;;;;;;;;;;4947452;28;20005;-82
2023/11/03 20:53:39;;;;;;;;;;;;;;;;;;4961900;28;19918;-82
2023/11/03 20:56:07;;;;;;;;;;;;;;;;;;4945375;28;20005;-82
2023/11/03 20:58:36;;;;;;;;;;;;;;;;;;4977152;28;19918;-82
2023/11/03 21:01:02;;;;;;;;;;;;;;;;;;4944915;28;20266;-81
2023/11/03 21:03:30;;;;;;;;;;;;;;;;;;4945478;28;19921;-82
2023/11/03 21:05:59;;;;;;;;;;;;;;;;;;4960444;28;20045;-80
2023/11/03 21:08:29;;;;;;;;;;;;;;;;;;4959471;28;19914;-81
2023/11/03 21:10:55;;;;;;;;;;;;;;;;;;4976939;28;19910;-80
2023/11/03 21:13:21;;;;;;;;;;;;;;;;;;4944470;28;19925;-81
2023/11/03 21:15:49;;;;;;;;;;;;;;;;;;4975169;28;20392;-81
2023/11/03 21:18:17;;;;;;;;;;;;;;;;;;4958510;28;19925;-81
2023/11/03 21:20:42;;;;;;;;;;;;;;;;;;4974125;28;20004;-81
2023/11/03 21:23:08;;;;;;;;;;;;;;;;;;4975093;28;19957;-80